createdAt,value
2023-08-05T00:01:30.059Z,101057.41
2023-08-05T00:03:58.348Z,101054.84
2023-08-05T00:06:28.094Z,101056.69
2023-08-05T00:08:56.350Z,101047.31
2023-08-05T00:11:24.664Z,101046.69
2023-08-05T00:13:52.899Z,101044.53
2023-08-05T00:16:21.313Z,101023.63
2023-08-05T00:18:49.622Z,101034.06
2023-08-05T00:21:18.972Z,101033.91
2023-08-05T00:23:48.674Z,101019.31
2023-08-05T00:26:17.600Z,101011.34
2023-08-05T00:28:45.916Z,101008.88
2023-08-05T00:31:15.228Z,101008.06
2023-08-05T00:33:43.537Z,101008.88
2023-08-05T00:36:11.837Z,101009.78
2023-08-05T00:38:40.154Z,101023.06
2023-08-05T00:41:10.134Z,101013.84
2023-08-05T00:43:38.429Z,101001.53
2023-08-05T00:46:07.162Z,101007.63
2023-08-05T00:48:35.512Z,100994.41
2023-08-05T00:51:04.443Z,101003.25
2023-08-05T00:53:34.404Z,101007.38
2023-08-05T00:56:03.147Z,101017.03
2023-08-05T00:58:34.310Z,101011.69
2023-08-05T01:01:04.106Z,100990.88
2023-08-05T01:03:32.642Z,100965.00
2023-08-05T01:06:02.416Z,100952.88
2023-08-05T01:08:32.148Z,100944.34
2023-08-05T01:11:02.377Z,100937.31
2023-08-05T01:13:34.310Z,100938.03
2023-08-05T01:16:02.712Z,100938.97
2023-08-05T01:18:32.408Z,100925.78
2023-08-05T01:21:05.302Z,100919.00
2023-08-05T01:23:49.177Z,100911.91
2023-08-05T01:26:19.134Z,100899.84
2023-08-05T01:28:47.974Z,100882.28
2023-08-05T01:31:18.077Z,100882.47
2023-08-05T01:33:47.918Z,100878.09
2023-08-05T01:36:22.169Z,100877.25
2023-08-05T01:38:51.097Z,100884.06
2023-08-05T01:41:21.073Z,100880.59
2023-08-05T01:43:50.418Z,100885.25
2023-08-05T01:46:18.929Z,100873.34
2023-08-05T01:48:48.521Z,100863.03
2023-08-05T01:51:16.838Z,100854.66
2023-08-05T01:53:45.603Z,100848.59
2023-08-05T01:56:13.931Z,100848.66
2023-08-05T01:58:43.606Z,100849.44
2023-08-05T02:01:11.951Z,100845.34
2023-08-05T02:03:40.480Z,100839.19
2023-08-05T02:06:09.152Z,100839.09
2023-08-05T02:08:38.459Z,100833.13
2023-08-05T02:11:06.843Z,100836.66
2023-08-05T02:13:35.176Z,100843.72
2023-08-05T02:16:06.707Z,100828.03
2023-08-05T02:18:35.240Z,100834.16
2023-08-05T02:21:03.523Z,100815.97
2023-08-05T02:23:32.742Z,100798.91
2023-08-05T02:26:02.453Z,100791.75
2023-08-05T02:28:30.772Z,100784.94
2023-08-05T02:30:59.173Z,100786.00
2023-08-05T02:33:28.922Z,100762.34
2023-08-05T02:35:59.224Z,100772.03
2023-08-05T02:38:27.672Z,100781.94
2023-08-05T02:40:56.097Z,100760.94
2023-08-05T02:43:24.450Z,100764.09
2023-08-05T02:45:56.577Z,100757.56
2023-08-05T02:48:25.073Z,100748.00
2023-08-05T02:50:56.560Z,100742.94
2023-08-05T02:53:25.142Z,100727.03
2023-08-05T02:55:53.802Z,100708.34
2023-08-05T02:58:22.191Z,100721.94
2023-08-05T03:00:50.628Z,100726.31
2023-08-05T03:03:19.271Z,100727.00
2023-08-05T03:05:47.825Z,100727.78
2023-08-05T03:08:17.769Z,100709.66
2023-08-05T03:10:46.401Z,100711.66
2023-08-05T03:13:15.515Z,100708.66
2023-08-05T03:15:44.751Z,100702.88
2023-08-05T03:18:18.676Z,100692.53
2023-08-05T03:20:48.345Z,100691.69
2023-08-05T03:23:20.610Z,100686.59
2023-08-05T03:25:52.906Z,100684.97
2023-08-05T03:28:21.542Z,100687.72
2023-08-05T03:30:53.450Z,100669.41
2023-08-05T03:33:28.148Z,100661.72
2023-08-05T03:35:58.347Z,100644.44
2023-08-05T03:38:30.285Z,100650.59
2023-08-05T03:41:02.989Z,100660.00
2023-08-05T03:43:31.354Z,100651.06
2023-08-05T03:45:59.730Z,100639.78
2023-08-05T03:48:28.093Z,100621.28
2023-08-05T03:50:56.904Z,100620.84
2023-08-05T03:53:25.304Z,100615.63
2023-08-05T03:55:56.257Z,100606.81
2023-08-05T03:58:24.802Z,100598.47
2023-08-05T04:00:54.614Z,100604.28
2023-08-05T04:03:23.994Z,100601.81
2023-08-05T04:05:52.359Z,100603.69
2023-08-05T04:08:21.306Z,100587.94
2023-08-05T04:10:49.683Z,100579.97
2023-08-05T04:13:22.598Z,100587.19
2023-08-05T04:15:54.979Z,100571.91
2023-08-05T04:18:23.955Z,100561.84
2023-08-05T04:20:52.553Z,100572.38
2023-08-05T04:23:22.545Z,100553.34
2023-08-05T04:25:50.855Z,100559.94
2023-08-05T04:28:20.612Z,100549.19
2023-08-05T04:30:49.944Z,100539.63
2023-08-05T04:33:18.225Z,100538.47
2023-08-05T04:35:50.440Z,100533.25
2023-08-05T04:38:18.909Z,100524.34
2023-08-05T04:40:47.254Z,100509.31
2023-08-05T04:43:15.556Z,100511.63
2023-08-05T04:45:45.477Z,100495.97
2023-08-05T04:48:15.159Z,100492.44
2023-08-05T04:50:43.554Z,100491.34
2023-08-05T04:53:11.862Z,100491.25
2023-08-05T04:55:42.079Z,100477.69
2023-08-05T04:58:12.023Z,100464.72
2023-08-05T05:00:40.459Z,100457.56
2023-08-05T05:03:10.255Z,100468.63
2023-08-05T05:05:38.696Z,100448.66
2023-08-05T05:08:07.025Z,100449.75
2023-08-05T05:10:35.305Z,100447.13
2023-08-05T05:13:03.717Z,100432.94
2023-08-05T05:15:32.475Z,100428.53
2023-08-05T05:18:00.799Z,100423.25
2023-08-05T05:20:31.455Z,100419.53
2023-08-05T05:22:59.694Z,100410.63
2023-08-05T05:25:28.011Z,100411.19
2023-08-05T05:27:56.320Z,100413.13
2023-08-05T05:30:24.727Z,100406.88
2023-08-05T05:32:53.164Z,100395.00
2023-08-05T05:35:21.534Z,100401.25
2023-08-05T05:37:51.233Z,100397.72
2023-08-05T05:40:19.490Z,100378.59
2023-08-05T05:42:49.451Z,100371.25
2023-08-05T05:45:18.382Z,100389.72
2023-08-05T05:47:47.145Z,100364.84
2023-08-05T05:50:15.487Z,100372.25
2023-08-05T05:52:43.712Z,100360.59
2023-08-05T05:55:13.403Z,100363.13
2023-08-05T05:57:41.755Z,100358.56
2023-08-05T06:00:11.179Z,100348.50
2023-08-05T06:02:42.062Z,100349.16
2023-08-05T06:05:10.931Z,100346.47
2023-08-05T06:07:39.210Z,100343.50
2023-08-05T06:10:08.585Z,100344.81
2023-08-05T06:12:39.166Z,100342.06
2023-08-05T06:15:09.103Z,100333.97
2023-08-05T06:17:37.458Z,100318.75
2023-08-05T06:20:06.798Z,100323.88
2023-08-05T06:22:35.117Z,100321.72
2023-08-05T06:25:03.564Z,100319.97
2023-08-05T06:27:31.807Z,100334.09
2023-08-05T06:30:01.637Z,100320.63
2023-08-05T06:32:30.118Z,100308.00
2023-08-05T06:34:58.490Z,100319.41
2023-08-05T06:37:26.726Z,100321.81
2023-08-05T06:39:55.034Z,100319.28
2023-08-05T06:42:25.295Z,100324.06
2023-08-05T06:44:53.766Z,100311.81
2023-08-05T06:47:23.434Z,100312.72
2023-08-05T06:49:51.770Z,100301.13
2023-08-05T06:52:19.963Z,100289.13
2023-08-05T06:54:48.416Z,100297.53
2023-08-05T06:57:17.113Z,100286.31
2023-08-05T06:59:45.909Z,100307.56
2023-08-05T07:02:14.168Z,100307.75
2023-08-05T07:04:43.896Z,100284.72
2023-08-05T07:07:12.428Z,100286.03
2023-08-05T07:09:40.777Z,100292.81
2023-08-05T07:12:09.957Z,100292.25
2023-08-05T07:14:39.374Z,100302.63
2023-08-05T07:17:08.680Z,100306.84
2023-08-05T07:19:37.006Z,100302.19
2023-08-05T07:22:07.277Z,100292.13
2023-08-05T07:24:36.521Z,100296.00
2023-08-05T07:27:05.373Z,100296.09
2023-08-05T07:29:33.725Z,100299.72
2023-08-05T07:32:02.068Z,100304.31
2023-08-05T07:34:32.966Z,100302.13
2023-08-05T07:37:01.779Z,100298.66
2023-08-05T07:39:35.030Z,100298.88
2023-08-05T07:42:04.845Z,100305.19
2023-08-05T07:44:33.582Z,100298.16
2023-08-05T07:47:02.345Z,100306.97
2023-08-05T07:49:30.663Z,100294.28
2023-08-05T07:51:59.033Z,100293.88
2023-08-05T07:54:27.983Z,100290.19
2023-08-05T07:57:00.159Z,100291.81
2023-08-05T07:59:28.986Z,100301.38
2023-08-05T08:01:57.596Z,100296.47
2023-08-05T08:04:25.854Z,100288.50
2023-08-05T08:06:54.145Z,100292.91
2023-08-05T08:09:22.637Z,100288.91
2023-08-05T08:11:51.717Z,100280.91
2023-08-05T08:14:21.594Z,100282.84
2023-08-05T08:16:50.261Z,100279.31
2023-08-05T08:19:20.229Z,100277.88
2023-08-05T08:21:48.737Z,100278.69
2023-08-05T08:24:18.339Z,100286.25
2023-08-05T08:26:46.711Z,100301.78
2023-08-05T08:29:15.209Z,100287.19
2023-08-05T08:31:45.055Z,100294.72
2023-08-05T08:34:13.359Z,100290.63
2023-08-05T08:36:41.674Z,100296.25
2023-08-05T08:39:09.925Z,100300.00
2023-08-05T08:41:42.898Z,100293.88
2023-08-05T08:44:11.691Z,100299.22
2023-08-05T08:46:40.240Z,100304.88
2023-08-05T08:49:10.471Z,100296.50
2023-08-05T08:51:40.734Z,100306.25
2023-08-05T08:54:10.119Z,100316.75
2023-08-05T08:56:38.576Z,100307.28
2023-08-05T08:59:07.147Z,100311.47
2023-08-05T09:01:36.655Z,100318.13
2023-08-05T09:04:07.610Z,100327.81
2023-08-05T09:06:39.742Z,100324.59
2023-08-05T09:09:08.339Z,100318.63
2023-08-05T09:11:37.291Z,100323.75
2023-08-05T09:14:05.755Z,100319.94
2023-08-05T09:16:34.043Z,100314.66
2023-08-05T09:19:03.701Z,100313.59
2023-08-05T09:21:32.014Z,100323.41
2023-08-05T09:24:02.961Z,100332.59
2023-08-05T09:26:32.626Z,100315.78
2023-08-05T09:29:02.061Z,100311.72
2023-08-05T09:31:30.490Z,100323.94
2023-08-05T09:33:58.736Z,100319.16
2023-08-05T09:36:28.420Z,100323.72
2023-08-05T09:39:07.695Z,100315.88
2023-08-05T09:41:37.059Z,100323.94
2023-08-05T09:44:06.760Z,100307.59
2023-08-05T09:46:41.366Z,100314.13
2023-08-05T09:49:10.848Z,100299.81
2023-08-05T09:51:43.592Z,100313.25
2023-08-05T09:54:17.143Z,100310.34
2023-08-05T09:56:46.730Z,100315.84
2023-08-05T09:59:16.750Z,100318.16
2023-08-05T10:01:47.306Z,100329.59
2023-08-05T10:04:17.745Z,100320.13
2023-08-05T10:06:49.286Z,100337.16
2023-08-05T10:09:19.103Z,100331.66
2023-08-05T10:11:48.069Z,100329.81
2023-08-05T10:14:17.506Z,100330.16
2023-08-05T10:16:47.128Z,100331.59
2023-08-05T10:19:15.551Z,100339.19
2023-08-05T10:21:44.083Z,100331.34
2023-08-05T10:24:12.470Z,100328.88
2023-08-05T10:26:46.740Z,100337.78
2023-08-05T10:29:28.121Z,100352.13
2023-08-05T10:32:10.722Z,100347.88
2023-08-05T10:34:39.159Z,100345.38
2023-08-05T10:37:07.588Z,100350.53
2023-08-05T10:39:42.239Z,100355.69
2023-08-05T10:42:22.406Z,100364.75
2023-08-05T10:44:56.602Z,100356.25
2023-08-05T10:47:25.381Z,100371.81
2023-08-05T10:50:00.766Z,100354.84
2023-08-05T10:52:31.088Z,100368.13
2023-08-05T10:55:00.202Z,100376.97
2023-08-05T10:57:47.157Z,100375.25
2023-08-05T11:00:25.769Z,100372.09
2023-08-05T11:03:26.716Z,100378.38
2023-08-05T11:06:01.394Z,100392.00
2023-08-05T11:08:31.900Z,100388.03
2023-08-05T11:11:03.587Z,100400.16
2023-08-05T11:13:38.021Z,100398.06
2023-08-05T11:16:11.375Z,100394.47
2023-08-05T11:18:40.927Z,100403.09
2023-08-05T11:21:10.719Z,100402.13
2023-08-05T11:23:40.921Z,100409.16
2023-08-05T11:26:10.479Z,100395.06
2023-08-05T11:28:44.299Z,100411.69
2023-08-05T11:31:21.653Z,100412.44
2023-08-05T11:33:50.403Z,100398.56
2023-08-05T11:36:19.269Z,100420.16
2023-08-05T11:38:51.952Z,100414.69
2023-08-05T11:41:20.376Z,100421.09
2023-08-05T11:43:50.276Z,100425.84
2023-08-05T11:46:28.510Z,100427.53
2023-08-05T11:49:10.807Z,100414.63
2023-08-05T11:51:49.287Z,100410.84
2023-08-05T11:54:26.937Z,100421.56
2023-08-05T11:56:55.465Z,100436.91
2023-08-05T11:59:41.646Z,100429.66
2023-08-05T12:02:10.610Z,100423.72
2023-08-05T12:04:44.971Z,100437.94
2023-08-05T12:07:14.701Z,100438.38
2023-08-05T12:09:43.553Z,100441.91
2023-08-05T12:12:18.072Z,100448.41
2023-08-05T12:14:47.816Z,100447.09
2023-08-05T12:17:16.986Z,100466.22
2023-08-05T12:19:46.824Z,100446.56
2023-08-05T12:22:15.175Z,100451.00
2023-08-05T12:24:43.657Z,100439.25
2023-08-05T12:27:11.944Z,100456.66
2023-08-05T12:29:40.139Z,100477.09
2023-08-05T12:32:09.946Z,100445.44
2023-08-05T12:34:38.253Z,100461.03
2023-08-05T12:37:06.873Z,100457.38
2023-08-05T12:39:35.088Z,100457.53
2023-08-05T12:42:03.390Z,100476.88
2023-08-05T12:44:31.684Z,100467.31
2023-08-05T12:47:00.001Z,100501.31
2023-08-05T12:49:30.048Z,100474.94
2023-08-05T12:51:58.997Z,100479.75
2023-08-05T12:54:27.205Z,100474.84
2023-08-05T12:56:55.604Z,100472.47
2023-08-05T12:59:24.021Z,100466.69
2023-08-05T13:01:52.344Z,100495.22
2023-08-05T13:04:20.619Z,100482.13
2023-08-05T13:06:50.453Z,100496.06
2023-08-05T13:09:19.682Z,100496.75
2023-08-05T13:11:48.362Z,100496.03
2023-08-05T13:14:16.766Z,100500.50
2023-08-05T13:16:45.207Z,100490.56
2023-08-05T13:19:16.247Z,100502.50
2023-08-05T13:21:44.694Z,100508.63
2023-08-05T13:24:14.416Z,100496.88
2023-08-05T13:26:42.801Z,100512.00
2023-08-05T13:29:11.140Z,100514.16
2023-08-05T13:31:39.449Z,100524.25
2023-08-05T13:34:07.799Z,100521.31
2023-08-05T13:36:36.125Z,100517.81
2023-08-05T13:39:04.464Z,100517.97
2023-08-05T13:41:34.228Z,100526.56
2023-08-05T13:44:02.590Z,100530.91
2023-08-05T13:46:31.032Z,100534.91
2023-08-05T13:48:59.481Z,100530.91
2023-08-05T13:51:27.845Z,100544.94
2023-08-05T13:53:58.205Z,100552.63
2023-08-05T13:56:27.422Z,100549.03
2023-08-05T13:58:57.142Z,100557.41
2023-08-05T14:01:25.594Z,100559.47
2023-08-05T14:03:53.947Z,100567.25
2023-08-05T14:06:22.370Z,100570.97
2023-08-05T14:08:52.089Z,100568.34
2023-08-05T14:11:20.683Z,100582.50
2023-08-05T14:13:48.932Z,100593.16
2023-08-05T14:16:21.044Z,100599.94
2023-08-05T14:18:49.588Z,100595.25
2023-08-05T14:21:17.804Z,100601.59
2023-08-05T14:23:46.079Z,100602.94
2023-08-05T14:26:15.042Z,100596.81
2023-08-05T14:28:43.572Z,100597.38
2023-08-05T14:31:11.827Z,100614.38
2023-08-05T14:33:41.569Z,100613.41
2023-08-05T14:36:13.672Z,100625.78
2023-08-05T14:38:41.875Z,100633.63
2023-08-05T14:41:15.788Z,100635.38
2023-08-05T14:43:44.215Z,100627.06
2023-08-05T14:46:12.802Z,100625.13
2023-08-05T14:48:42.732Z,100637.78
2023-08-05T14:51:10.954Z,100640.69
2023-08-05T14:53:39.361Z,100635.47
2023-08-05T14:56:07.756Z,100647.91
2023-08-05T14:58:36.098Z,100638.59
2023-08-05T15:01:06.692Z,100657.22
2023-08-05T15:03:35.151Z,100669.63
2023-08-05T15:06:05.013Z,100659.84
2023-08-05T15:08:33.395Z,100660.00
2023-08-05T15:11:02.034Z,100652.13
2023-08-05T15:13:30.419Z,100658.34
2023-08-05T15:15:59.958Z,100654.84
2023-08-05T15:18:28.448Z,100664.06
2023-08-05T15:20:56.768Z,100679.41
2023-08-05T15:23:30.889Z,100677.00
2023-08-05T15:26:00.276Z,100683.91
2023-08-05T15:28:28.527Z,100677.22
2023-08-05T15:30:56.884Z,100680.91
2023-08-05T15:33:25.881Z,100678.72
2023-08-05T15:35:54.168Z,100672.84
2023-08-05T15:38:22.510Z,100695.31
2023-08-05T15:40:59.138Z,100687.47
2023-08-05T15:43:27.384Z,100691.44
2023-08-05T15:45:56.981Z,100691.75
2023-08-05T15:48:25.838Z,100694.03
2023-08-05T15:50:54.235Z,100692.47
2023-08-05T15:53:22.613Z,100706.38
2023-08-05T15:56:00.291Z,100707.53
2023-08-05T15:58:29.602Z,100695.13
2023-08-05T16:01:01.923Z,100678.78
2023-08-05T16:03:30.365Z,100702.19
2023-08-05T16:06:02.986Z,100698.22
2023-08-05T16:08:32.093Z,100700.09
2023-08-05T16:11:03.306Z,100707.59
2023-08-05T16:13:32.016Z,100710.16
2023-08-05T16:16:08.045Z,100717.50
2023-08-05T16:18:37.111Z,100712.88
2023-08-05T16:21:15.896Z,100712.28
2023-08-05T16:23:44.854Z,100722.03
2023-08-05T16:26:15.950Z,100720.94
2023-08-05T16:28:44.534Z,100735.44
2023-08-05T16:31:12.901Z,100732.81
2023-08-05T16:33:41.682Z,100743.78
2023-08-05T16:36:10.394Z,100719.78
2023-08-05T16:38:39.418Z,100724.66
2023-08-05T16:41:08.720Z,100739.03
2023-08-05T16:43:39.054Z,100753.69
2023-08-05T16:46:07.848Z,100764.69
2023-08-05T16:48:39.168Z,100772.91
2023-08-05T16:51:07.520Z,100771.78
2023-08-05T16:53:35.811Z,100775.94
2023-08-05T16:56:05.081Z,100764.50
2023-08-05T16:58:33.780Z,100754.53
2023-08-05T17:01:03.593Z,100773.03
2023-08-05T17:03:31.934Z,100768.47
2023-08-05T17:06:00.270Z,100774.56
2023-08-05T17:08:28.837Z,100774.31
2023-08-05T17:10:57.100Z,100777.22
2023-08-05T17:13:25.447Z,100790.41
2023-08-05T17:15:54.044Z,100781.22
2023-08-05T17:18:23.725Z,100790.59
2023-08-05T17:20:56.088Z,100797.38
2023-08-05T17:23:24.721Z,100798.13
2023-08-05T17:25:53.153Z,100802.34
2023-08-05T17:28:21.503Z,100806.88
2023-08-05T17:30:50.730Z,100813.56
2023-08-05T17:33:19.310Z,100815.72
2023-08-05T17:35:53.895Z,100820.53
2023-08-05T17:38:24.082Z,100816.69
2023-08-05T17:40:53.566Z,100830.88
2023-08-05T17:43:22.135Z,100835.63
2023-08-05T17:45:58.369Z,100826.47
2023-08-05T17:48:26.715Z,100821.03
2023-08-05T17:51:00.951Z,100843.53
2023-08-05T17:53:29.298Z,100823.91
2023-08-05T17:55:57.561Z,100826.44
2023-08-05T17:58:26.095Z,100842.88
2023-08-05T18:00:54.392Z,100848.59
2023-08-05T18:03:22.890Z,100843.72
2023-08-05T18:05:56.931Z,100852.38
2023-08-05T18:08:34.077Z,100848.06
2023-08-05T18:11:02.408Z,100840.81
2023-08-05T18:13:30.842Z,100847.13
2023-08-05T18:15:59.075Z,100848.91
2023-08-05T18:18:27.349Z,100842.78
2023-08-05T18:20:57.501Z,100852.38
2023-08-05T18:23:25.947Z,100857.03
2023-08-05T18:25:56.140Z,100868.69
2023-08-05T18:28:24.589Z,100867.25
2023-08-05T18:30:54.366Z,100865.41
2023-08-05T18:33:22.920Z,100874.41
2023-08-05T18:35:51.379Z,100880.34
2023-08-05T18:38:19.988Z,100878.22
2023-08-05T18:40:48.321Z,100885.97
2023-08-05T18:43:19.913Z,100889.41
2023-08-05T18:45:55.230Z,100885.97
2023-08-05T18:48:23.784Z,100886.53
2023-08-05T18:50:52.047Z,100896.66
2023-08-05T18:53:20.392Z,100899.91
2023-08-05T18:55:49.346Z,100908.91
2023-08-05T18:58:19.983Z,100910.25
2023-08-05T19:00:51.138Z,100920.84
2023-08-05T19:03:20.423Z,100918.41
2023-08-05T19:05:58.564Z,100923.47
2023-08-05T19:08:27.920Z,100923.09
2023-08-05T19:10:56.349Z,100924.94
2023-08-05T19:13:27.196Z,100922.84
2023-08-05T19:16:01.775Z,100933.75
2023-08-05T19:18:32.569Z,100941.63
2023-08-05T19:21:04.583Z,100937.13
2023-08-05T19:23:32.871Z,100935.94
2023-08-05T19:26:01.981Z,100946.13
2023-08-05T19:28:31.919Z,100937.59
2023-08-05T19:31:06.003Z,100942.63
2023-08-05T19:33:34.532Z,100949.81
2023-08-05T19:36:13.017Z,100950.19
2023-08-05T19:38:42.472Z,100954.00
2023-08-05T19:41:11.483Z,100952.34
2023-08-05T19:43:42.495Z,100946.13
2023-08-05T19:46:12.676Z,100956.50
2023-08-05T19:48:43.006Z,100959.66
2023-08-05T19:51:14.056Z,100965.56
2023-08-05T19:53:43.883Z,100968.13
2023-08-05T19:56:12.259Z,100969.72
2023-08-05T19:58:42.163Z,100974.13
2023-08-05T20:01:11.575Z,100988.97
2023-08-05T20:03:41.034Z,100984.75
2023-08-05T20:06:09.649Z,100993.69
2023-08-05T20:08:37.980Z,100994.75
2023-08-05T20:11:06.334Z,100989.84
2023-08-05T20:13:34.651Z,100989.94
2023-08-05T20:16:04.829Z,100997.16
2023-08-05T20:18:33.241Z,101002.78
2023-08-05T20:21:03.365Z,101000.56
2023-08-05T20:23:33.466Z,101001.81
2023-08-05T20:26:08.708Z,101011.03
2023-08-05T20:28:37.537Z,101015.63
2023-08-05T20:31:07.280Z,101022.91
2023-08-05T20:33:35.574Z,101012.84
2023-08-05T20:36:03.954Z,101032.16
2023-08-05T20:38:32.285Z,101033.09
2023-08-05T20:41:03.941Z,101034.94
2023-08-05T20:43:32.889Z,101048.94
2023-08-05T20:46:01.182Z,101048.94
2023-08-05T20:48:30.799Z,101041.19
2023-08-05T20:51:00.220Z,101042.00
2023-08-05T20:53:28.523Z,101048.31
2023-08-05T20:55:56.840Z,101046.63
2023-08-05T20:58:25.450Z,101043.50
2023-08-05T21:01:00.859Z,101054.81
2023-08-05T21:03:30.842Z,101049.59
2023-08-05T21:06:02.466Z,101052.28
2023-08-05T21:08:31.204Z,101053.19
2023-08-05T21:11:05.770Z,101053.28
2023-08-05T21:13:34.333Z,101063.78
2023-08-05T21:16:03.399Z,101059.47
2023-08-05T21:18:33.897Z,101073.47
2023-08-05T21:21:02.529Z,101063.94
2023-08-05T21:23:30.915Z,101073.59
2023-08-05T21:25:59.480Z,101077.06
2023-08-05T21:28:27.852Z,101080.81
2023-08-05T21:31:00.702Z,101073.97
2023-08-05T21:33:29.717Z,101071.41
2023-08-05T21:36:00.923Z,101080.88
2023-08-05T21:38:29.623Z,101078.50
2023-08-05T21:40:58.467Z,101076.78
2023-08-05T21:43:26.812Z,101086.63
2023-08-05T21:45:57.478Z,101079.53
2023-08-05T21:48:26.565Z,101084.84
2023-08-05T21:50:54.820Z,101097.97
2023-08-05T21:53:24.545Z,101099.59
2023-08-05T21:55:53.081Z,101091.19
2023-08-05T21:58:21.437Z,101094.78
2023-08-05T22:00:50.794Z,101093.94
2023-08-05T22:03:19.087Z,101106.09
2023-08-05T22:05:47.399Z,101106.09
2023-08-05T22:08:15.697Z,101098.38
2023-08-05T22:10:47.525Z,101101.00
2023-08-05T22:13:15.889Z,101102.91
2023-08-05T22:15:45.207Z,101103.75
2023-08-05T22:18:13.523Z,101099.28
2023-08-05T22:20:49.325Z,101094.94
2023-08-05T22:23:18.035Z,101098.38
2023-08-05T22:25:48.031Z,101102.69
2023-08-05T22:28:16.299Z,101109.75
2023-08-05T22:30:44.783Z,101108.13
2023-08-05T22:33:13.083Z,101103.75
2023-08-05T22:35:41.398Z,101103.66
2023-08-05T22:38:09.663Z,101105.50
2023-08-05T22:40:38.799Z,101108.84
2023-08-05T22:43:08.539Z,101101.97
2023-08-05T22:45:36.942Z,101102.91
2023-08-05T22:48:05.522Z,101108.03
2023-08-05T22:50:33.877Z,101109.13
2023-08-05T22:53:02.469Z,101111.78
2023-08-05T22:55:30.956Z,101109.16
2023-08-05T22:57:59.224Z,101117.84
2023-08-05T23:00:28.912Z,101115.25
2023-08-05T23:02:57.512Z,101109.16
2023-08-05T23:05:25.792Z,101107.41
2023-08-05T23:07:54.147Z,101106.69
2023-08-05T23:10:22.584Z,101103.19
2023-08-05T23:12:50.912Z,101119.81
2023-08-05T23:15:20.060Z,101111.97
2023-08-05T23:17:50.468Z,101112.81
2023-08-05T23:20:18.732Z,101120.75
2023-08-05T23:22:47.123Z,101125.88
2023-08-05T23:25:15.789Z,101116.38
2023-08-05T23:27:44.068Z,101116.44
2023-08-05T23:30:12.675Z,101124.25
2023-08-05T23:32:41.503Z,101123.34
2023-08-05T23:35:11.772Z,101136.47
2023-08-05T23:37:40.470Z,101136.59
2023-08-05T23:40:10.753Z,101117.47
2023-08-05T23:42:38.953Z,101127.91
2023-08-05T23:45:08.931Z,101122.66
2023-08-05T23:47:38.430Z,101131.34
2023-08-05T23:50:07.792Z,101124.44
2023-08-05T23:52:37.545Z,101133.13
2023-08-05T23:55:06.437Z,101132.50
2023-08-05T23:57:34.671Z,101133.28
